Time;durP1;ratioP1;P1;durP2;ratioP2;P2;SDS_P1;SDS_P2;PMS_P1;PMS_P2;Temp;Humidity;BMP_temperature;BMP_pressure;BME280_temperature;BME280_humidity;BME280_pressure;Samples;Min_cycle;Max_cycle;Signal;HPM_P1;HPM_P2
2023/11/21 00:01:40;;;;;;;14.57;7.85;;;;;;;6.12;53.98;93663.34;4927820;28;20500;-73
2023/11/21 00:04:07;;;;;;;18.08;8.55;;;;;;;6.05;54.06;93660.31;4929984;28;20028;-73
2023/11/21 00:06:32;;;;;;;10.70;6.18;;;;;;;6.17;54.00;93667.78;4930368;28;20031;-76
2023/11/21 00:09:00;;;;;;;14.32;7.30;;;;;;;6.22;54.05;93680.91;4936063;28;20086;-76
2023/11/21 00:11:26;;;;;;;10.93;6.22;;;;;;;6.04;54.18;93660.59;4926152;28;21169;-73
2023/11/21 00:13:51;;;;;;;12.15;7.60;;;;;;;6.13;54.32;93682.63;4934641;28;20039;-74
2023/11/21 00:16:17;;;;;;;12.68;7.78;;;;;;;6.00;54.32;93679.66;4932044;28;20403;-72
2023/11/21 00:18:42;;;;;;;11.98;8.00;;;;;;;5.93;54.54;93676.56;4935521;28;20034;-76
2023/11/21 00:21:09;;;;;;;12.38;9.00;;;;;;;5.99;54.55;93683.34;4925731;28;20496;-73
2023/11/21 00:23:36;;;;;;;13.65;8.75;;;;;;;5.98;54.31;93671.22;4934063;28;20190;-74
2023/11/21 00:26:01;;;;;;;13.20;8.85;;;;;;;6.11;54.24;93676.84;4935115;28;20443;-75
2023/11/21 00:28:27;;;;;;;16.25;10.30;;;;;;;5.99;54.44;93662.25;4945170;28;20027;-75
2023/11/21 00:30:53;;;;;;;15.45;9.65;;;;;;;6.02;54.84;93669.56;4936368;28;20027;-74
2023/11/21 00:33:19;;;;;;;15.32;9.65;;;;;;;6.07;54.57;93673.22;4930209;28;20091;-74
2023/11/21 00:35:45;;;;;;;14.02;9.20;;;;;;;6.00;54.82;93663.81;4934532;28;20051;-76
2023/11/21 00:38:10;;;;;;;14.48;9.75;;;;;;;5.86;54.93;93664.81;4933495;28;20502;-74
2023/11/21 00:40:35;;;;;;;16.85;10.55;;;;;;;5.90;55.26;93674.53;4947162;28;20388;-75
2023/11/21 00:43:01;;;;;;;17.50;9.45;;;;;;;6.04;54.83;93673.78;4934432;28;20043;-76
2023/11/21 00:45:26;;;;;;;16.27;12.57;;;;;;;5.89;54.87;93672.94;4931865;28;20028;-75
2023/11/21 00:47:52;;;;;;;20.20;13.75;;;;;;;5.96;54.49;93662.81;4932953;28;20035;-74
2023/11/21 00:50:17;;;;;;;21.80;13.00;;;;;;;5.86;54.81;93656.91;4932517;28;20341;-75
2023/11/21 00:52:43;;;;;;;22.83;12.43;;;;;;;5.68;55.64;93661.09;4933895;28;20043;-76
2023/11/21 00:55:08;;;;;;;17.02;11.38;;;;;;;5.60;55.04;93642.50;4936503;28;20114;-76
2023/11/21 00:57:35;;;;;;;16.05;11.90;;;;;;;5.74;55.03;93667.88;4933165;28;20066;-75
2023/11/21 01:00:00;;;;;;;16.73;10.68;;;;;;;5.58;55.52;93645.41;4935416;28;20031;-75
2023/11/21 01:02:26;;;;;;;14.68;9.25;;;;;;;5.62;55.08;93640.38;4933434;28;20113;-75
2023/11/21 01:04:51;;;;;;;13.48;9.65;;;;;;;5.64;54.67;93662.75;4932972;28;20039;-76
2023/11/21 01:07:20;;;;;;;15.15;8.32;;;;;;;5.41;54.87;93645.13;4932962;28;20042;-75
2023/11/21 01:09:46;;;;;;;9.27;5.70;;;;;;;4.90;55.09;93550.91;4933687;28;20621;-73
2023/11/21 01:12:11;;;;;;;12.43;6.18;;;;;;;5.56;55.02;93645.72;4944243;28;20044;-75
2023/11/21 01:14:37;;;;;;;10.00;6.63;;;;;;;5.27;55.45;93623.19;4933029;28;20329;-76
2023/11/21 01:17:04;;;;;;;11.82;6.72;;;;;;;5.27;56.02;93652.19;4933144;28;20054;-74
2023/11/21 01:19:29;;;;;;;12.95;8.27;;;;;;;5.43;55.60;93653.56;4946320;28;20080;-77
2023/11/21 01:21:57;;;;;;;15.43;10.63;;;;;;;5.42;55.52;93654.63;4933005;28;20039;-77
2023/11/21 01:24:23;;;;;;;19.38;11.52;;;;;;;5.53;55.19;93658.69;4933704;28;20046;-77
2023/11/21 01:26:48;;;;;;;16.80;10.55;;;;;;;5.53;55.10;93663.94;4927886;28;20040;-75
2023/11/21 01:29:14;;;;;;;15.48;10.52;;;;;;;5.58;55.23;93661.25;4933689;28;20617;-75
2023/11/21 01:31:41;;;;;;;14.23;9.43;;;;;;;5.50;55.55;93649.50;4932642;28;20031;-75
2023/11/21 01:34:06;;;;;;;13.80;8.57;;;;;;;5.42;55.54;93641.44;4932067;28;20023;-72
2023/11/21 01:36:33;;;;;;;12.07;6.60;;;;;;;5.35;55.46;93633.09;4934261;28;20742;-73
2023/11/21 01:39:00;;;;;;;11.05;6.35;;;;;;;5.30;55.42;93639.22;4932467;28;20040;-74
2023/11/21 01:41:27;;;;;;;11.95;6.85;;;;;;;5.42;55.15;93657.28;4933869;28;20086;-74
2023/11/21 01:43:53;;;;;;;13.88;7.05;;;;;;;5.34;55.44;93660.53;4930707;28;20039;-74
2023/11/21 01:46:20;;;;;;;11.32;7.43;;;;;;;5.14;55.23;93630.72;4949864;28;20055;-75
2023/11/21 01:48:46;;;;;;;13.95;9.32;;;;;;;5.42;55.14;93657.28;4934754;28;20019;-75
2023/11/21 01:51:12;;;;;;;17.60;10.90;;;;;;;5.09;55.58;93628.13;4931451;28;20086;-75
2023/11/21 01:53:39;;;;;;;16.67;11.02;;;;;;;4.93;56.06;93624.13;4947727;28;20036;-75
2023/11/21 01:56:07;;;;;;;14.70;9.88;;;;;;;5.05;56.05;93636.91;4932450;28;20035;-75
2023/11/21 01:58:36;;;;;;;11.88;7.53;;;;;;;4.97;55.98;93643.59;4934388;28;20035;-76
2023/11/21 02:01:01;;;;;;;11.32;7.60;;;;;;;5.20;55.74;93659.66;4933808;28;20023;-75
2023/11/21 02:03:27;;;;;;;7.82;5.43;;;;;;;5.05;55.85;93650.06;4931622;28;20047;-74
2023/11/21 02:05:53;;;;;;;11.95;6.90;;;;;;;4.87;56.28;93633.16;4933235;28;20034;-75
2023/11/21 02:08:19;;;;;;;9.18;6.28;;;;;;;4.92;56.62;93645.50;4933289;28;20043;-75
2023/11/21 02:10:48;;;;;;;14.30;10.23;;;;;;;5.03;56.48;93657.50;4934509;28;20043;-75
2023/11/21 02:13:13;;;;;;;16.20;9.00;;;;;;;5.02;56.04;93650.66;4931874;28;20066;-75
2023/11/21 02:15:39;;;;;;;16.35;10.35;;;;;;;5.10;55.92;93656.06;4933669;28;20142;-75
2023/11/21 02:18:06;;;;;;;15.52;10.88;;;;;;;5.01;56.04;93630.63;4932565;28;20522;-76
2023/11/21 02:20:34;;;;;;;13.57;9.38;;;;;;;4.83;56.18;93618.19;4933546;28;20035;-73
2023/11/21 02:23:01;;;;;;;14.63;7.50;;;;;;;4.89;56.61;93644.22;4938423;28;20040;-74
2023/11/21 02:25:37;;;;;;;11.38;6.78;;;;;;;4.88;56.53;93633.94;4933134;28;20058;-75
2023/11/21 02:28:06;;;;;;;12.63;8.68;;;;;;;5.05;56.68;93653.50;4930424;28;20015;-75
2023/11/21 02:30:32;;;;;;;11.70;8.35;;;;;;;5.01;56.57;93641.94;4932844;28;20028;-74
2023/11/21 02:32:59;;;;;;;12.20;8.07;;;;;;;5.00;56.68;93639.59;4931087;28;20618;-75
2023/11/21 02:35:27;;;;;;;14.43;8.48;;;;;;;5.00;56.28;93639.59;4931180;28;20039;-75
2023/11/21 02:37:53;;;;;;;10.32;7.43;;;;;;;4.99;56.51;93638.81;4932644;28;20047;-74
2023/11/21 02:40:24;;;;;;;9.90;7.63;;;;;;;5.17;55.65;93641.78;4932472;28;20023;-75
2023/11/21 02:42:53;;;;;;;9.02;6.80;;;;;;;4.95;56.15;93645.72;4932531;28;20024;-75
2023/11/21 02:45:20;;;;;;;15.05;7.93;;;;;;;4.95;56.34;93647.56;4931120;28;20046;-75
2023/11/21 02:47:47;;;;;;;12.43;8.63;;;;;;;4.94;56.44;93646.75;4933337;28;20039;-74
2023/11/21 02:50:13;;;;;;;17.25;8.65;;;;;;;4.98;56.57;93641.75;4932768;28;20043;-75
2023/11/21 02:52:39;;;;;;;12.05;8.73;;;;;;;4.92;56.52;93632.31;4929833;28;20035;-75
2023/11/21 02:55:07;;;;;;;10.27;6.97;;;;;;;4.84;56.63;93625.84;4931203;28;20031;-75
2023/11/21 02:57:33;;;;;;;7.25;5.70;;;;;;;4.82;56.51;93625.31;4931930;28;20042;-75
2023/11/21 03:00:01;;;;;;;7.43;4.90;;;;;;;4.85;56.79;93637.91;4932478;28;20043;-74
2023/11/21 03:02:26;;;;;;;7.85;4.32;;;;;;;4.91;56.47;93636.81;4933429;28;20043;-75
2023/11/21 03:04:52;;;;;;;7.90;4.55;;;;;;;4.94;56.57;93619.66;4931998;28;20051;-75
2023/11/21 03:07:21;;;;;;;6.20;3.50;;;;;;;4.69;57.00;93623.38;4930601;28;20019;-75
2023/11/21 03:09:47;;;;;;;8.88;4.85;;;;;;;4.80;56.99;93616.91;4933587;28;20024;-74
2023/11/21 03:12:12;;;;;;;5.40;3.85;;;;;;;4.82;56.95;93612.13;4931004;28;20114;-75
2023/11/21 03:14:39;;;;;;;4.15;3.72;;;;;;;4.88;56.45;93618.94;4943490;28;20046;-74
2023/11/21 03:17:05;;;;;;;5.47;3.78;;;;;;;4.51;57.42;93600.38;4931350;28;20042;-74
2023/11/21 03:19:31;;;;;;;3.95;3.05;;;;;;;4.72;57.46;93632.53;4932365;28;20024;-74
2023/11/21 03:21:56;;;;;;;7.32;4.10;;;;;;;4.56;57.28;93613.47;4929781;28;20387;-74
2023/11/21 03:24:22;;;;;;;5.25;2.80;;;;;;;4.67;57.53;93644.72;4931508;28;20039;-75
2023/11/21 03:26:48;;;;;;;3.85;2.55;;;;;;;4.82;57.26;93654.28;4930699;28;20042;-75
2023/11/21 03:29:14;;;;;;;6.40;2.53;;;;;;;4.64;57.85;93642.66;4932367;28;20456;-75
2023/11/21 03:31:40;;;;;;;5.18;2.47;;;;;;;4.61;58.09;93647.66;4927360;28;20529;-74
2023/11/21 03:34:06;;;;;;;3.47;2.67;;;;;;;4.61;58.14;93635.28;4933436;28;20028;-74
2023/11/21 03:36:31;;;;;;;3.95;2.85;;;;;;;4.75;57.82;93645.94;4930449;28;20525;-75
2023/11/21 03:38:57;;;;;;;6.28;4.00;;;;;;;4.83;58.00;93650.59;4944655;28;20696;-75
2023/11/21 03:41:22;;;;;;;4.22;3.17;;;;;;;4.72;57.50;93620.16;4929978;28;20495;-76
2023/11/21 03:43:48;;;;;;;4.95;3.13;;;;;;;4.89;57.46;93638.94;4927665;28;20043;-75
2023/11/21 03:46:13;;;;;;;5.05;3.10;;;;;;;4.89;57.84;93635.53;4933583;28;20031;-74
2023/11/21 03:48:39;;;;;;;5.05;3.20;;;;;;;4.94;57.40;93624.94;4931252;28;20031;-75
2023/11/21 03:51:05;;;;;;;4.95;2.55;;;;;;;4.85;57.35;93613.41;4926067;28;20035;-74
2023/11/21 03:53:32;;;;;;;3.00;2.08;;;;;;;4.88;57.48;93629.47;4937016;28;20419;-74
2023/11/21 03:55:57;;;;;;;3.05;1.70;;;;;;;4.88;56.96;93620.78;4936191;28;20042;-74
2023/11/21 03:58:23;;;;;;;3.63;2.40;;;;;;;4.79;57.36;93612.72;4944823;28;20458;-75
2023/11/21 04:00:51;;;;;;;3.80;2.55;;;;;;;4.79;57.30;93615.34;4931692;28;20050;-74
2023/11/21 04:03:16;;;;;;;3.08;2.78;;;;;;;4.83;57.61;93619.00;4931929;28;20323;-74
2023/11/21 04:05:42;;;;;;;5.72;4.03;;;;;;;4.93;57.16;93613.59;4931456;28;20434;-74
2023/11/21 04:08:07;;;;;;;7.70;5.00;;;;;;;4.76;57.46;93610.63;4944832;28;20455;-74
2023/11/21 04:10:32;;;;;;;8.10;4.90;;;;;;;4.79;57.34;93602.19;4931402;28;20047;-75
2023/11/21 04:13:00;;;;;;;9.75;5.25;;;;;;;4.90;57.20;93608.88;4931230;28;20049;-75
2023/11/21 04:15:26;;;;;;;9.38;4.82;;;;;;;4.95;57.18;93605.38;4931163;28;20076;-74
2023/11/21 04:17:51;;;;;;;7.68;4.20;;;;;;;4.82;57.07;93596.34;4931739;28;20126;-75
2023/11/21 04:20:17;;;;;;;5.90;3.17;;;;;;;4.77;57.70;93606.16;4928266;28;20035;-75
2023/11/21 04:22:44;;;;;;;4.88;3.63;;;;;;;4.63;57.84;93598.13;4929734;28;20502;-75
2023/11/21 04:25:15;;;;;;;4.57;2.80;;;;;;;4.80;57.67;93598.44;4928858;28;20039;-74
2023/11/21 04:27:43;;;;;;;5.45;2.33;;;;;;;4.63;57.51;93584.97;4931431;28;20043;-74
2023/11/21 04:30:09;;;;;;;3.13;2.65;;;;;;;4.79;57.62;93602.19;4929124;28;20055;-75
2023/11/21 04:32:35;;;;;;;13.60;4.55;;;;;;;4.89;56.50;93603.91;4932749;28;20039;-74
2023/11/21 04:35:03;;;;;;;5.97;2.70;;;;;;;5.00;57.19;93621.13;4927123;28;20039;-75
2023/11/21 04:37:29;;;;;;;4.95;2.70;;;;;;;4.79;57.65;93623.25;4932373;28;20062;-75
2023/11/21 04:39:54;;;;;;;4.68;2.55;;;;;;;4.76;57.70;93617.75;4944569;28;20024;-74
2023/11/21 04:42:20;;;;;;;4.65;3.22;;;;;;;4.67;57.45;93604.41;4930228;28;20118;-74
2023/11/21 04:44:45;;;;;;;5.78;3.35;;;;;;;4.74;57.22;93602.22;4929671;28;20126;-73
2023/11/21 04:47:11;;;;;;;9.02;4.93;;;;;;;4.92;57.27;93617.28;4932354;28;20046;-73
2023/11/21 04:49:36;;;;;;;7.53;4.55;;;;;;;4.74;57.27;93599.59;4930091;28;20034;-75
2023/11/21 04:52:03;;;;;;;8.20;4.68;;;;;;;4.73;57.44;93629.63;4930072;28;20043;-75
2023/11/21 04:54:30;;;;;;;8.25;5.80;;;;;;;4.50;57.65;93606.72;4931784;28;20045;-74
2023/11/21 04:56:56;;;;;;;12.75;6.95;;;;;;;4.61;57.80;93611.56;4935975;28;20108;-74
2023/11/21 04:59:24;;;;;;;10.23;7.25;;;;;;;4.68;57.98;93621.78;4947153;28;20083;-74
2023/11/21 05:01:50;;;;;;;10.30;8.18;;;;;;;4.50;58.29;93593.56;4933421;28;20035;-73
2023/11/21 05:04:15;;;;;;;19.75;7.90;;;;;;;4.54;58.70;93620.91;4933513;28;20040;-74
2023/11/21 05:06:41;;;;;;;12.27;8.43;;;;;;;4.52;58.61;93613.25;4933032;28;20129;-74
2023/11/21 05:09:11;;;;;;;13.20;6.78;;;;;;;4.78;58.00;93632.22;4934248;28;21033;-74
2023/11/21 05:11:37;;;;;;;14.20;9.65;;;;;;;4.43;58.53;93599.16;4933274;28;20649;-74
2023/11/21 05:14:03;;;;;;;22.10;12.10;;;;;;;4.36;59.86;93618.94;4934969;28;20035;-74
2023/11/21 05:16:29;;;;;;;17.95;11.40;;;;;;;4.43;59.57;93608.88;4933775;28;20114;-75
2023/11/21 05:19:00;;;;;;;16.95;10.75;;;;;;;4.57;59.38;93620.31;4936300;28;20016;-74
2023/11/21 05:21:26;;;;;;;13.68;9.13;;;;;;;4.47;59.41;93609.91;4950209;28;20117;-75
2023/11/21 05:23:51;;;;;;;11.85;8.63;;;;;;;4.63;59.44;93613.94;4948136;28;20123;-74
2023/11/21 05:26:18;;;;;;;12.18;8.38;;;;;;;4.63;59.24;93619.22;4947729;28;20561;-74
2023/11/21 05:28:44;;;;;;;11.98;7.63;;;;;;;4.65;59.00;93617.84;4931709;28;20055;-74
2023/11/21 05:31:10;;;;;;;14.05;8.00;;;;;;;4.69;58.91;93618.09;4934769;28;20123;-74
2023/11/21 05:33:36;;;;;;;16.77;9.88;;;;;;;4.70;58.66;93622.28;4932478;28;20519;-74
2023/11/21 05:36:01;;;;;;;13.52;8.10;;;;;;;4.55;58.73;93611.94;4930677;28;20055;-74
2023/11/21 05:38:27;;;;;;;14.50;10.07;;;;;;;4.10;59.25;93576.28;4932717;28;20043;-74
2023/11/21 05:40:55;;;;;;;35.88;20.95;;;;;;;4.42;59.87;93620.47;4935071;28;20414;-74
2023/11/21 05:43:21;;;;;;;31.08;20.67;;;;;;;4.38;59.58;93612.34;4931470;28;20038;-74
2023/11/21 05:45:46;;;;;;;61.78;37.70;;;;;;;4.37;59.53;93623.16;4934559;28;20019;-75
2023/11/21 05:48:12;;;;;;;36.42;18.17;;;;;;;4.45;59.22;93617.31;4930884;28;20134;-74
2023/11/21 05:50:38;;;;;;;22.83;14.98;;;;;;;4.55;59.03;93625.09;4929064;28;20047;-75
2023/11/21 05:53:03;;;;;;;18.08;12.23;;;;;;;4.58;58.94;93622.69;4928807;28;20083;-74
2023/11/21 05:55:29;;;;;;;19.45;11.13;;;;;;;4.38;59.70;93609.72;4933522;28;20406;-74
2023/11/21 05:57:55;;;;;;;19.52;11.68;;;;;;;4.56;59.88;93618.75;4933689;28;20066;-74
2023/11/21 06:00:25;;;;;;;16.42;10.40;;;;;;;4.55;59.70;93622.47;4932408;28;20066;-74
2023/11/21 06:02:55;;;;;;;15.18;9.80;;;;;;;4.65;59.42;93619.69;4932846;28;20614;-74
2023/11/21 06:05:23;;;;;;;13.80;10.32;;;;;;;4.68;58.78;93627.06;4930016;28;20561;-75
2023/11/21 06:07:49;;;;;;;16.80;12.15;;;;;;;4.37;59.32;93588.94;4931270;28;20039;-75
2023/11/21 06:10:20;;;;;;;23.95;14.45;;;;;;;4.62;59.59;93622.91;4929781;28;20032;-73
2023/11/21 06:12:45;;;;;;;19.83;13.63;;;;;;;4.58;59.94;93629.81;4947284;28;20556;-74
2023/11/21 06:15:15;;;;;;;20.23;13.15;;;;;;;4.80;59.46;93637.97;4931965;28;21005;-74
2023/11/21 06:17:42;;;;;;;23.48;15.23;;;;;;;4.59;59.90;93623.47;4929606;28;20078;-74
2023/11/21 06:20:13;;;;;;;28.02;17.10;;;;;;;4.54;60.25;93632.22;4932904;28;20191;-74
2023/11/21 06:22:41;;;;;;;35.83;19.10;;;;;;;4.62;60.41;93636.06;4931116;28;20039;-74
2023/11/21 06:25:08;;;;;;;31.67;18.58;;;;;;;4.64;60.70;93631.31;4933283;28;20550;-74
2023/11/21 06:27:38;;;;;;;30.33;18.45;;;;;;;4.64;60.19;93620.78;4931580;28;20035;-76
2023/11/21 06:30:04;;;;;;;28.88;19.38;;;;;;;4.89;60.19;93643.44;4931734;28;20091;-74
2023/11/21 06:32:30;;;;;;;32.90;20.27;;;;;;;4.93;59.57;93633.91;4931269;28;20122;-74
2023/11/21 06:34:59;;;;;;;30.73;19.02;;;;;;;5.04;59.88;93641.38;4930733;28;20982;-75
2023/11/21 06:37:29;;;;;;;29.77;19.65;;;;;;;4.99;59.60;93623.00;4932628;28;20078;-75
2023/11/21 06:39:56;;;;;;;32.42;19.27;;;;;;;5.10;59.30;93650.81;4930380;28;20408;-74
2023/11/21 06:42:21;;;;;;;37.95;23.48;;;;;;;4.94;59.55;93636.22;4933457;28;20119;-75
2023/11/21 06:44:48;;;;;;;34.42;21.98;;;;;;;5.00;59.89;93661.47;4930480;28;20031;-74
2023/11/21 06:47:13;;;;;;;35.85;22.10;;;;;;;4.99;59.94;93659.88;4932815;28;20694;-75
2023/11/21 06:49:39;;;;;;;35.42;22.25;;;;;;;5.11;59.74;93660.28;4931408;28;20110;-75
2023/11/21 06:52:05;;;;;;;36.33;21.52;;;;;;;5.19;59.62;93663.38;4931608;28;20474;-75
2023/11/21 06:54:31;;;;;;;42.55;25.83;;;;;;;5.13;59.54;93667.91;4931308;28;20174;-76
2023/11/21 06:56:57;;;;;;;34.67;21.83;;;;;;;5.07;59.59;93645.31;4949368;28;20110;-75
2023/11/21 06:59:24;;;;;;;35.92;22.45;;;;;;;4.81;60.49;93663.25;4932512;28;20039;-74
2023/11/21 07:01:50;;;;;;;35.90;23.58;;;;;;;4.88;60.07;93658.44;4929114;28;20712;-75
2023/11/21 07:04:16;;;;;;;37.53;22.92;;;;;;;4.85;60.40;93645.03;4929687;28;20039;-75
2023/11/21 07:06:41;;;;;;;34.15;23.40;;;;;;;5.04;59.78;93644.00;4927530;28;20552;-75
2023/11/21 07:09:08;;;;;;;39.67;24.70;;;;;;;5.17;59.36;93652.31;4934261;28;20415;-75
2023/11/21 07:11:35;;;;;;;40.22;22.95;;;;;;;5.28;59.03;93661.69;4942788;28;20146;-74
2023/11/21 07:14:07;;;;;;;36.58;22.50;;;;;;;5.21;58.98;93634.84;4932733;28;21081;-74
2023/11/21 07:16:37;;;;;;;47.55;24.33;;;;;;;5.32;59.19;93642.38;4927162;28;20845;-74
2023/11/21 07:19:08;;;;;;;34.15;22.85;;;;;;;5.50;58.88;93648.72;4931477;28;20022;-74
2023/11/21 07:21:37;;;;;;;39.30;22.92;;;;;;;5.44;58.89;93649.84;4931337;28;20067;-75
2023/11/21 07:24:03;;;;;;;41.08;23.50;;;;;;;5.60;58.68;93653.06;4931075;28;20450;-76
2023/11/21 07:26:30;;;;;;;48.33;23.95;;;;;;;5.56;58.89;93653.63;4931580;28;20043;-76
2023/11/21 07:28:56;;;;;;;55.05;28.50;;;;;;;5.50;59.40;93659.25;4934981;28;20059;-77
2023/11/21 07:31:23;;;;;;;43.30;27.20;;;;;;;5.72;58.76;93654.22;4924644;28;20118;-75
2023/11/21 07:33:50;;;;;;;41.28;23.92;;;;;;;5.48;59.04;93658.78;4931392;28;20059;-75
2023/11/21 07:36:18;;;;;;;47.80;24.65;;;;;;;5.58;58.84;93658.59;4945412;28;20533;-75
2023/11/21 07:38:44;;;;;;;36.85;22.25;;;;;;;5.34;59.75;93665.78;4926975;28;20047;-75
2023/11/21 07:41:10;;;;;;;39.20;23.10;;;;;;;5.25;59.82;93668.28;4928828;28;20048;-74
2023/11/21 07:43:35;;;;;;;37.42;24.02;;;;;;;5.06;59.82;93610.25;4931172;28;20126;-74
2023/11/21 07:46:04;;;;;;;42.17;23.23;;;;;;;5.48;59.03;93661.41;4928416;28;20468;-74
2023/11/21 07:48:33;;;;;;;42.97;25.35;;;;;;;5.24;60.17;93650.09;4931446;28;20455;-76
2023/11/21 07:51:05;;;;;;;37.60;23.80;;;;;;;5.48;59.96;93641.06;4927648;28;20063;-75
2023/11/21 07:53:31;;;;;;;38.30;22.95;;;;;;;5.69;59.72;93652.13;4929755;28;20147;-75
2023/11/21 07:55:57;;;;;;;34.40;23.75;;;;;;;5.72;59.19;93643.66;4928153;28;20043;-75
2023/11/21 07:58:23;;;;;;;48.30;25.98;;;;;;;5.66;59.37;93631.59;4935337;28;20386;-75
2023/11/21 08:00:49;;;;;;;48.60;27.67;;;;;;;5.63;59.81;93647.22;4932758;28;20051;-75
2023/11/21 08:03:15;;;;;;;62.42;35.38;;;;;;;5.24;61.18;93623.72;4931258;28;20043;-75
2023/11/21 08:05:41;;;;;;;56.67;31.95;;;;;;;5.42;60.36;93641.44;4928000;28;20110;-76
2023/11/21 08:08:07;;;;;;;53.03;29.85;;;;;;;5.47;60.49;93618.44;4932673;28;20503;-75
2023/11/21 08:10:33;;;;;;;47.78;27.58;;;;;;;5.77;60.31;93633.03;4933576;28;20047;-75
2023/11/21 08:12:59;;;;;;;40.67;25.83;;;;;;;5.85;59.10;93640.28;4928652;28;20028;-75
2023/11/21 08:15:25;;;;;;;44.17;26.80;;;;;;;5.91;59.33;93620.66;4934252;28;20035;-75
2023/11/21 08:17:50;;;;;;;50.22;30.20;;;;;;;5.89;59.38;93638.63;4925338;28;20403;-75
2023/11/21 08:20:18;;;;;;;48.17;29.48;;;;;;;6.00;59.71;93632.13;4929786;28;20538;-75
2023/11/21 08:22:45;;;;;;;49.75;28.33;;;;;;;5.65;60.56;93639.78;4930646;28;20039;-75
2023/11/21 08:25:11;;;;;;;35.70;24.30;;;;;;;5.75;61.21;93637.78;4930116;28;20035;-74
2023/11/21 08:27:36;;;;;;;46.92;24.85;;;;;;;5.97;60.47;93640.59;4932841;28;21344;-75
2023/11/21 08:30:05;;;;;;;40.95;24.42;;;;;;;6.13;59.48;93640.38;4927183;28;20042;-75
2023/11/21 08:32:33;;;;;;;43.20;25.65;;;;;;;6.27;58.70;93631.44;4931182;28;20040;-74
2023/11/21 08:35:01;;;;;;;44.13;25.05;;;;;;;6.46;58.75;93630.63;4927541;28;20110;-75
2023/11/21 08:37:27;;;;;;;38.25;24.10;;;;;;;6.63;58.58;93628.19;4932075;28;20148;-75
2023/11/21 08:39:52;;;;;;;32.20;22.10;;;;;;;6.36;58.49;93628.94;4946910;28;20031;-76
2023/11/21 08:42:18;;;;;;;41.47;23.67;;;;;;;6.39;58.65;93633.63;4932489;28;20048;-75
2023/11/21 08:44:44;;;;;;;46.88;23.60;;;;;;;6.24;59.03;93620.69;4933822;28;20998;-75
2023/11/21 08:47:09;;;;;;;51.83;33.50;;;;;;;6.55;59.00;93632.31;4932238;28;20454;-75
2023/11/21 08:49:35;;;;;;;530.58;299.00;;;;;;;6.36;59.53;93627.06;4933377;28;20499;-75
2023/11/21 08:52:00;;;;;;;176.18;97.13;;;;;;;6.62;59.04;93622.13;4932638;28;20689;-74
2023/11/21 08:54:26;;;;;;;56.00;30.77;;;;;;;6.56;58.70;93623.28;4936112;28;20042;-74
2023/11/21 08:56:55;;;;;;;48.20;27.98;;;;;;;6.14;60.13;93623.47;4930340;28;20036;-75
2023/11/21 08:59:21;;;;;;;210.48;189.98;;;;;;;6.49;59.30;93607.03;4931258;28;20062;-76
2023/11/21 09:01:47;;;;;;;71.22;63.22;;;;;;;6.61;58.85;93595.97;4933304;28;20031;-75
2023/11/21 09:04:12;;;;;;;46.65;27.65;;;;;;;6.56;58.71;93588.13;4932628;28;20034;-75
2023/11/21 09:06:39;;;;;;;46.05;27.02;;;;;;;6.55;59.05;93578.66;4932729;28;20024;-75
2023/11/21 09:09:05;;;;;;;44.35;25.02;;;;;;;6.81;58.45;93583.16;4932887;28;20499;-73
2023/11/21 09:11:33;;;;;;;42.10;25.70;;;;;;;6.72;57.97;93571.72;4935176;28;20537;-75
2023/11/21 09:14:00;;;;;;;40.92;25.50;;;;;;;6.66;57.79;93572.88;4929400;28;20511;-75
2023/11/21 09:16:26;;;;;;;40.20;24.83;;;;;;;6.76;57.75;93572.69;4932350;28;20019;-75
2023/11/21 09:18:52;;;;;;;38.65;25.60;;;;;;;7.08;56.24;93577.06;4933385;28;20361;-74
2023/11/21 09:21:17;;;;;;;45.17;24.80;;;;;;;7.22;56.72;93555.88;4934123;28;20047;-75
2023/11/21 09:23:46;;;;;;;36.97;24.52;;;;;;;7.11;56.77;93541.31;4932563;28;20032;-75
2023/11/21 09:26:12;;;;;;;36.90;23.73;;;;;;;7.06;56.68;93534.25;4934833;28;20105;-74
2023/11/21 09:28:38;;;;;;;37.72;24.27;;;;;;;7.09;56.28;93532.91;4931321;28;20119;-75
2023/11/21 09:31:04;;;;;;;34.25;22.25;;;;;;;6.79;57.13;93532.47;4932709;28;20023;-75
2023/11/21 09:33:31;;;;;;;40.08;24.45;;;;;;;6.64;57.59;93509.00;4932847;28;20043;-75
2023/11/21 09:35:57;;;;;;;30.45;21.55;;;;;;;6.65;57.73;93509.78;4933762;28;20045;-75
2023/11/21 09:38:23;;;;;;;34.42;20.00;;;;;;;7.00;57.14;93516.16;4931135;28;20066;-74
2023/11/21 09:40:49;;;;;;;25.17;18.52;;;;;;;7.20;56.32;93528.94;4933813;28;20139;-75
2023/11/21 09:43:19;;;;;;;24.05;16.35;;;;;;;7.26;56.02;93509.25;4932518;28;20066;-74
2023/11/21 09:45:47;;;;;;;35.83;22.30;;;;;;;6.75;56.78;93491.06;4933418;28;20031;-75
2023/11/21 09:48:16;;;;;;;40.60;22.80;;;;;;;6.90;57.26;93489.97;4933890;28;20050;-74
2023/11/21 09:50:43;;;;;;;45.88;23.27;;;;;;;7.39;56.69;93487.22;4934098;28;20500;-75
2023/11/21 09:53:20;;;;;;;33.03;20.50;;;;;;;7.19;55.91;93477.91;4934162;28;20153;-75
2023/11/21 09:55:48;;;;;;;29.65;18.98;;;;;;;7.27;56.15;93479.84;4936116;28;20122;-75
2023/11/21 09:58:14;;;;;;;29.83;19.00;;;;;;;7.65;56.35;93469.66;4937921;28;20122;-74
2023/11/21 10:00:41;;;;;;;38.72;20.80;;;;;;;7.87;55.55;93474.19;4934190;28;20019;-74
2023/11/21 10:03:08;;;;;;;33.47;19.45;;;;;;;7.58;54.85;93464.00;4932230;28;20047;-75
2023/11/21 10:05:34;;;;;;;38.08;20.63;;;;;;;7.29;56.24;93461.00;4929431;28;20031;-74
2023/11/21 10:08:00;;;;;;;33.97;20.75;;;;;;;7.65;55.84;93459.09;4947910;28;20066;-74
2023/11/21 10:10:29;;;;;;;41.10;20.33;;;;;;;7.89;54.54;93463.28;4933636;28;20055;-75
2023/11/21 10:13:02;;;;;;;37.40;19.70;;;;;;;7.73;54.78;93450.44;4931775;28;20027;-75
2023/11/21 10:15:30;;;;;;;34.65;19.75;;;;;;;7.95;54.88;93446.97;4932293;28;20031;-74
2023/11/21 10:17:56;;;;;;;41.03;22.35;;;;;;;7.99;54.69;93441.84;4932508;28;20152;-75
2023/11/21 10:20:24;;;;;;;31.75;20.70;;;;;;;8.12;54.24;93440.94;4932479;28;20520;-75
2023/11/21 10:22:50;;;;;;;36.63;18.92;;;;;;;7.73;54.40;93441.72;4945561;28;20774;-75
2023/11/21 10:25:16;;;;;;;32.40;19.73;;;;;;;7.81;54.61;93440.19;4932012;28;20090;-75
2023/11/21 10:27:43;;;;;;;30.80;18.33;;;;;;;7.94;54.59;93437.47;4931011;28;20054;-75
2023/11/21 10:30:12;;;;;;;31.27;18.63;;;;;;;8.38;53.75;93439.19;4931089;28;20040;-76
2023/11/21 10:32:42;;;;;;;31.60;18.75;;;;;;;8.39;53.17;93442.59;4928177;28;20107;-74
2023/11/21 10:35:11;;;;;;;25.10;16.67;;;;;;;8.61;52.38;93436.44;4929234;28;20040;-75
2023/11/21 10:37:39;;;;;;;33.25;17.45;;;;;;;8.16;52.83;93394.25;4929143;28;20067;-75
2023/11/21 10:40:07;;;;;;;23.30;15.45;;;;;;;8.52;52.96;93425.78;4932136;28;20031;-75
2023/11/21 10:42:32;;;;;;;29.08;13.88;;;;;;;8.57;51.91;93402.56;4933413;28;20518;-75
2023/11/21 10:45:00;;;;;;;25.90;14.80;;;;;;;8.64;51.22;93419.91;4929802;28;20101;-76
2023/11/21 10:47:27;;;;;;;26.55;15.10;;;;;;;8.46;51.60;93411.91;4920173;28;20053;-74
2023/11/21 10:49:53;;;;;;;23.27;15.75;;;;;;;8.69;51.38;93406.50;4919766;28;20169;-74
2023/11/21 10:52:36;;;;;;;23.35;14.68;;;;;;;8.85;51.22;93415.56;4944089;28;20115;-75
2023/11/21 10:55:24;;;;;;;24.73;16.05;;;;;;;9.17;50.99;93417.78;4918077;28;20138;-75
2023/11/21 10:57:57;;;;;;;27.92;13.52;;;;;;;9.35;49.79;93408.69;4936485;28;20118;-74
2023/11/21 11:00:24;;;;;;;24.70;14.27;;;;;;;8.98;49.64;93404.03;4931477;28;20046;-75
2023/11/21 11:02:54;;;;;;;25.92;15.38;;;;;;;8.94;50.42;93401.22;4937242;28;20035;-75
2023/11/21 11:05:25;;;;;;;26.58;16.77;;;;;;;9.08;50.42;93398.41;4950324;28;20036;-75
2023/11/21 11:08:12;;;;;;;22.08;13.77;;;;;;;9.26;50.36;93396.53;4957769;28;20039;-76
2023/11/21 11:10:38;;;;;;;22.80;12.60;;;;;;;9.25;48.80;93400.28;4939297;28;20043;-76
2023/11/21 11:13:06;;;;;;;21.60;12.95;;;;;;;9.17;49.05;93385.16;4932816;28;20027;-77
2023/11/21 11:15:32;;;;;;;25.35;13.45;;;;;;;9.60;50.06;93401.00;4931428;28;20038;-76
2023/11/21 11:18:01;;;;;;;18.35;13.15;;;;;;;9.39;48.97;93380.44;4942246;28;20570;-76
2023/11/21 11:20:34;;;;;;;18.85;12.60;;;;;;;9.18;49.31;93360.97;4933177;28;20717;-76
2023/11/21 11:23:46;;;;;;;23.67;14.18;;;;;;;9.31;49.59;93364.53;4937801;28;20403;-75
2023/11/21 11:26:46;;;;;;;25.45;15.35;;;;;;;9.35;49.03;93368.88;4930678;28;20050;-77
2023/11/21 11:29:26;;;;;;;20.45;14.70;;;;;;;9.59;49.50;93357.72;4932382;28;20118;-76